createdAt,value
2018-07-17T00:00:20.884Z,6.80
2018-07-17T00:01:20.943Z,6.10
2018-07-17T00:02:20.986Z,7.10
2018-07-17T00:03:20.933Z,7.70
2018-07-17T00:04:20.970Z,7.80
2018-07-17T00:05:20.977Z,6.90
2018-07-17T00:06:20.981Z,6.50
2018-07-17T00:07:21.024Z,6.40
2018-07-17T00:08:21.079Z,6.20
2018-07-17T00:09:21.073Z,6.30
2018-07-17T00:10:21.078Z,6.80
2018-07-17T00:11:21.055Z,5.90
2018-07-17T00:12:21.089Z,6.60
2018-07-17T00:13:21.125Z,6.90
2018-07-17T00:14:21.130Z,6.50
2018-07-17T00:15:21.114Z,6.40
2018-07-17T00:16:21.159Z,6.40
2018-07-17T00:17:21.148Z,6.80
2018-07-17T00:18:21.196Z,6.70
2018-07-17T00:19:21.208Z,6.60
2018-07-17T00:20:21.170Z,6.60
2018-07-17T00:21:21.212Z,6.50
2018-07-17T00:22:21.249Z,7.10
2018-07-17T00:23:21.265Z,6.60
2018-07-17T00:24:21.246Z,6.80
2018-07-17T00:25:21.277Z,6.40
2018-07-17T00:26:21.270Z,6.90
2018-07-17T00:27:21.377Z,6.60
2018-07-17T00:28:21.341Z,6.50
2018-07-17T00:29:21.341Z,6.50
2018-07-17T00:30:21.339Z,6.40
2018-07-17T00:31:21.412Z,7.00
2018-07-17T00:32:21.395Z,6.80
2018-07-17T00:33:21.394Z,6.80
2018-07-17T00:34:21.401Z,6.50
2018-07-17T00:35:21.398Z,6.70
2018-07-17T00:36:21.412Z,6.80
2018-07-17T00:37:21.471Z,6.90
2018-07-17T00:38:21.496Z,6.40
2018-07-17T00:39:21.457Z,6.40
2018-07-17T00:40:21.490Z,7.70
2018-07-17T00:41:21.485Z,7.10
2018-07-17T00:42:21.509Z,6.80
2018-07-17T00:43:21.545Z,6.60
2018-07-17T00:44:21.549Z,6.30
2018-07-17T00:45:21.556Z,6.40
2018-07-17T00:46:21.585Z,6.60
2018-07-17T00:47:21.589Z,6.60
2018-07-17T00:48:21.617Z,6.90
2018-07-17T00:49:21.655Z,6.60
2018-07-17T00:50:21.658Z,6.60
2018-07-17T00:51:21.640Z,6.70
2018-07-17T00:52:21.637Z,6.70
2018-07-17T00:53:21.657Z,7.00
2018-07-17T00:54:21.680Z,7.10
2018-07-17T00:55:21.728Z,6.90
2018-07-17T00:56:21.738Z,6.50
2018-07-17T00:57:21.727Z,6.70
2018-07-17T00:58:21.766Z,7.20
2018-07-17T00:59:21.746Z,6.90
2018-07-17T01:00:21.802Z,6.80
2018-07-17T01:01:21.791Z,7.10
2018-07-17T01:02:21.796Z,6.80
2018-07-17T01:03:21.827Z,7.20
2018-07-17T01:04:21.816Z,7.30
2018-07-17T01:05:21.826Z,7.40
2018-07-17T01:06:21.862Z,6.60
2018-07-17T01:07:21.861Z,7.00
2018-07-17T01:08:21.956Z,7.00
2018-07-17T01:09:21.888Z,7.10
2018-07-17T01:10:21.909Z,7.30
2018-07-17T01:11:21.932Z,7.30
2018-07-17T01:12:21.940Z,6.80
2018-07-17T01:13:21.979Z,6.70
2018-07-17T01:14:21.987Z,7.40
2018-07-17T01:15:21.999Z,7.20
2018-07-17T01:16:21.991Z,7.50
2018-07-17T01:17:22.032Z,6.90
2018-07-17T01:18:22.032Z,7.30
2018-07-17T01:19:22.097Z,7.10
2018-07-17T01:20:22.063Z,7.30
2018-07-17T01:21:22.089Z,6.90
2018-07-17T01:22:22.078Z,7.70
2018-07-17T01:23:22.114Z,7.40
2018-07-17T01:24:22.088Z,7.30
2018-07-17T01:25:22.109Z,7.20
2018-07-17T01:26:22.165Z,7.30
2018-07-17T01:27:22.160Z,7.30
2018-07-17T01:28:22.170Z,7.90
2018-07-17T01:29:22.180Z,7.40
2018-07-17T01:30:22.185Z,7.60
2018-07-17T01:31:22.250Z,7.40
2018-07-17T01:32:22.207Z,7.70
2018-07-17T01:33:22.224Z,7.50
2018-07-17T01:34:22.256Z,7.80
2018-07-17T01:35:22.278Z,7.80
2018-07-17T01:36:22.296Z,7.60
2018-07-17T01:37:22.324Z,7.60
2018-07-17T01:38:22.413Z,8.10
2018-07-17T01:39:22.341Z,8.10
2018-07-17T01:40:22.331Z,7.60
2018-07-17T01:41:22.375Z,8.30
2018-07-17T01:42:22.338Z,7.60
2018-07-17T01:43:22.420Z,7.90
2018-07-17T01:44:22.384Z,7.90
2018-07-17T01:45:22.397Z,8.10
2018-07-17T01:46:22.418Z,8.10
2018-07-17T01:47:22.413Z,7.90
2018-07-17T01:48:22.484Z,8.40
2018-07-17T01:49:22.493Z,8.40
2018-07-17T01:50:22.468Z,8.50
2018-07-17T01:51:22.491Z,8.10
2018-07-17T01:52:22.510Z,8.20
2018-07-17T01:53:22.509Z,8.20
2018-07-17T01:54:22.549Z,7.90
2018-07-17T01:55:22.563Z,7.80
2018-07-17T01:56:22.578Z,8.00
2018-07-17T01:57:22.589Z,8.20
2018-07-17T01:58:22.591Z,7.70
2018-07-17T01:59:22.656Z,8.10
2018-07-17T02:00:22.647Z,7.70
2018-07-17T02:01:22.639Z,8.50
2018-07-17T02:02:22.636Z,8.10
2018-07-17T02:03:22.659Z,8.30
2018-07-17T02:04:22.717Z,8.30
2018-07-17T02:05:22.712Z,8.20
2018-07-17T02:06:22.702Z,8.40
2018-07-17T02:07:22.751Z,8.50
2018-07-17T02:08:22.710Z,8.30
2018-07-17T02:09:22.756Z,8.00
2018-07-17T02:10:22.781Z,8.30
2018-07-17T02:11:22.861Z,8.70
2018-07-17T02:12:22.763Z,8.10
2018-07-17T02:13:22.800Z,8.20
2018-07-17T02:14:22.806Z,8.20
2018-07-17T02:15:22.804Z,8.20
2018-07-17T02:16:22.864Z,8.70
2018-07-17T02:17:22.859Z,8.80
2018-07-17T02:18:22.865Z,8.00
2018-07-17T02:19:22.891Z,8.30
2018-07-17T02:20:22.924Z,8.40
2018-07-17T02:21:22.960Z,8.60
2018-07-17T02:22:22.905Z,8.70
2018-07-17T02:23:22.930Z,8.60
2018-07-17T02:24:22.958Z,8.60
2018-07-17T02:25:22.973Z,8.40
2018-07-17T02:26:23.007Z,8.20
2018-07-17T02:27:23.035Z,8.30
2018-07-17T02:28:23.013Z,8.50
2018-07-17T02:29:23.033Z,8.90
2018-07-17T02:30:23.030Z,8.80
2018-07-17T02:31:23.051Z,8.50
2018-07-17T02:32:23.106Z,8.50
2018-07-17T02:33:23.183Z,9.00
2018-07-17T02:34:23.085Z,8.70
2018-07-17T02:35:23.113Z,8.20
2018-07-17T02:36:23.099Z,8.50
2018-07-17T02:37:23.126Z,8.30
2018-07-17T02:38:23.174Z,8.50
2018-07-17T02:39:23.158Z,8.30
2018-07-17T02:40:23.210Z,8.40
2018-07-17T02:41:23.242Z,8.10
2018-07-17T02:42:23.235Z,8.10
2018-07-17T02:43:23.207Z,8.50
2018-07-17T02:44:23.260Z,8.20
2018-07-17T02:45:23.243Z,8.70
2018-07-17T02:46:23.324Z,8.30
2018-07-17T02:47:23.301Z,8.40
2018-07-17T02:48:23.293Z,8.50
2018-07-17T02:49:23.341Z,8.60
2018-07-17T02:50:23.306Z,8.30
2018-07-17T02:51:23.327Z,8.30
2018-07-17T02:52:23.334Z,8.70
2018-07-17T02:53:23.371Z,8.70
2018-07-17T02:54:23.385Z,8.10
2018-07-17T02:55:23.431Z,8.40
2018-07-17T02:56:23.412Z,8.70
2018-07-17T02:57:23.404Z,8.30
2018-07-17T02:58:23.416Z,8.40
2018-07-17T02:59:23.471Z,7.90
2018-07-17T03:00:23.485Z,8.70
2018-07-17T03:01:23.483Z,8.60
2018-07-17T03:02:23.472Z,8.30
2018-07-17T03:03:23.497Z,8.50
2018-07-17T03:04:23.492Z,8.50
2018-07-17T03:05:23.539Z,8.50
2018-07-17T03:06:23.585Z,8.90
2018-07-17T03:07:23.523Z,8.60
2018-07-17T03:08:23.553Z,8.30
2018-07-17T03:09:23.559Z,9.20
2018-07-17T03:10:23.620Z,8.40
2018-07-17T03:11:23.621Z,8.30
2018-07-17T03:12:23.606Z,8.90
2018-07-17T03:13:23.657Z,8.20
2018-07-17T03:14:23.632Z,8.90
2018-07-17T03:15:23.653Z,8.90
2018-07-17T03:16:23.663Z,8.60
2018-07-17T03:17:23.727Z,8.60
2018-07-17T03:18:23.748Z,8.60
2018-07-17T03:19:23.705Z,9.50
2018-07-17T03:20:23.720Z,8.60
2018-07-17T03:21:23.764Z,8.60
2018-07-17T03:22:23.765Z,9.00
2018-07-17T03:23:23.827Z,8.70
2018-07-17T03:24:23.791Z,9.10
2018-07-17T03:25:23.789Z,9.40
2018-07-17T03:26:23.803Z,8.90
2018-07-17T03:27:23.827Z,9.30
2018-07-17T03:28:23.865Z,9.30
2018-07-17T03:29:23.852Z,9.30
2018-07-17T03:30:23.868Z,9.10
2018-07-17T03:31:23.927Z,9.00
2018-07-17T03:32:23.889Z,9.50
2018-07-17T03:33:23.913Z,9.30
2018-07-17T03:34:23.922Z,9.10
2018-07-17T03:35:23.937Z,9.80
2018-07-17T03:36:24.014Z,9.20
2018-07-17T03:37:23.954Z,9.50
2018-07-17T03:38:23.967Z,9.30
2018-07-17T03:39:23.980Z,9.20
2018-07-17T03:40:24.006Z,9.90
2018-07-17T03:41:24.038Z,10.90
2018-07-17T03:42:24.006Z,9.70
2018-07-17T03:43:24.067Z,9.90
2018-07-17T03:44:24.044Z,9.50
2018-07-17T03:45:24.105Z,9.60
2018-07-17T03:46:24.062Z,9.00
2018-07-17T03:47:24.095Z,9.90
2018-07-17T03:48:24.097Z,9.60
2018-07-17T03:49:24.116Z,9.60
2018-07-17T03:50:24.160Z,9.20
2018-07-17T03:51:24.182Z,9.50
2018-07-17T03:52:24.158Z,9.20
2018-07-17T03:53:24.173Z,9.50
2018-07-17T03:54:24.191Z,8.90
2018-07-17T03:55:24.212Z,9.80
2018-07-17T03:56:24.228Z,8.80
2018-07-17T03:57:24.246Z,9.50
2018-07-17T03:58:24.273Z,9.30
2018-07-17T03:59:24.285Z,9.20
2018-07-17T04:00:24.266Z,10.20
2018-07-17T04:01:24.282Z,9.50
2018-07-17T04:02:24.351Z,9.40
2018-07-17T04:03:24.303Z,10.00
2018-07-17T04:04:24.363Z,9.80
2018-07-17T04:05:24.328Z,10.10
2018-07-17T04:06:24.344Z,10.10
2018-07-17T04:07:24.406Z,9.90
2018-07-17T04:08:24.440Z,10.20
2018-07-17T04:09:24.391Z,9.10
2018-07-17T04:10:24.412Z,9.60
2018-07-17T04:11:24.437Z,9.40
2018-07-17T04:12:24.431Z,9.10
2018-07-17T04:13:24.488Z,9.00
2018-07-17T04:14:24.466Z,9.40
2018-07-17T04:15:24.485Z,9.90
2018-07-17T04:16:24.479Z,9.30
2018-07-17T04:17:24.561Z,9.40
2018-07-17T04:18:24.524Z,9.70
2018-07-17T04:19:24.526Z,9.60
2018-07-17T04:20:24.541Z,9.40
2018-07-17T04:21:24.580Z,10.20
2018-07-17T04:22:24.602Z,9.20
2018-07-17T04:23:24.587Z,9.30
2018-07-17T04:24:24.585Z,9.30
2018-07-17T04:25:24.608Z,9.60
2018-07-17T04:26:24.631Z,9.70
2018-07-17T04:27:24.714Z,9.30
2018-07-17T04:28:24.689Z,9.50
2018-07-17T04:29:24.680Z,9.50
2018-07-17T04:30:24.683Z,9.30
2018-07-17T04:31:24.696Z,9.80
2018-07-17T04:32:24.696Z,9.60
2018-07-17T04:33:24.772Z,9.70
2018-07-17T04:34:24.755Z,9.30
2018-07-17T04:35:24.759Z,9.80
2018-07-17T04:36:24.807Z,9.70
2018-07-17T04:37:24.784Z,9.80
2018-07-17T04:38:24.789Z,9.90
2018-07-17T04:39:24.869Z,9.70
2018-07-17T04:40:24.832Z,10.00
2018-07-17T04:41:24.881Z,9.70
2018-07-17T04:42:24.852Z,9.50
2018-07-17T04:43:24.918Z,9.60
2018-07-17T04:44:24.919Z,42.90
2018-07-17T04:45:24.901Z,10.10
2018-07-17T04:46:24.960Z,10.10
2018-07-17T04:47:24.983Z,9.70
2018-07-17T04:48:24.916Z,9.20
2018-07-17T04:49:24.950Z,9.00
2018-07-17T04:50:24.970Z,9.50
2018-07-17T04:51:24.976Z,9.50
2018-07-17T04:52:25.027Z,9.60
2018-07-17T04:53:25.008Z,9.00
2018-07-17T04:54:25.076Z,9.00
2018-07-17T04:55:25.051Z,9.20
2018-07-17T04:56:25.055Z,8.50
2018-07-17T04:57:25.085Z,9.80
2018-07-17T04:58:25.106Z,9.50
2018-07-17T04:59:25.122Z,8.60
2018-07-17T05:00:25.148Z,9.00
2018-07-17T05:01:25.194Z,9.30
2018-07-17T05:02:25.128Z,9.20
2018-07-17T05:03:25.134Z,8.70
2018-07-17T05:04:25.159Z,8.30
2018-07-17T05:05:25.217Z,8.50
2018-07-17T05:06:25.182Z,8.90
2018-07-17T05:07:25.244Z,8.90
2018-07-17T05:08:25.203Z,8.70
2018-07-17T05:09:25.244Z,8.70
2018-07-17T05:10:25.239Z,8.70
2018-07-17T05:11:25.277Z,8.50
2018-07-17T05:12:25.333Z,8.30
2018-07-17T05:13:25.305Z,8.10
2018-07-17T05:14:25.304Z,8.10
2018-07-17T05:15:25.365Z,8.30
2018-07-17T05:16:25.421Z,8.10
2018-07-17T05:17:25.380Z,8.70
2018-07-17T05:18:25.391Z,8.90
2018-07-17T05:19:25.420Z,8.20
2018-07-17T05:20:25.417Z,8.50
2018-07-17T05:21:25.387Z,8.60
2018-07-17T05:22:25.445Z,8.30
2018-07-17T05:23:25.458Z,8.20
2018-07-17T05:24:25.448Z,8.00
2018-07-17T05:25:25.438Z,8.70
2018-07-17T05:26:25.480Z,8.50
2018-07-17T05:27:25.494Z,8.60
2018-07-17T05:28:25.541Z,8.70
2018-07-17T05:29:25.548Z,8.50
2018-07-17T05:30:25.604Z,8.20
2018-07-17T05:31:25.551Z,8.20
2018-07-17T05:32:25.562Z,7.80
2018-07-17T05:33:25.584Z,8.40
2018-07-17T05:34:25.593Z,8.90
2018-07-17T05:35:25.675Z,8.30
2018-07-17T05:36:25.655Z,7.90
2018-07-17T05:37:25.621Z,8.20
2018-07-17T05:38:25.661Z,8.20
2018-07-17T05:39:25.687Z,8.60
2018-07-17T05:40:25.688Z,8.00
2018-07-17T05:41:25.689Z,8.10
2018-07-17T05:42:25.738Z,8.10
2018-07-17T05:43:25.747Z,8.40
2018-07-17T05:44:25.738Z,8.00
2018-07-17T05:45:25.776Z,8.00
2018-07-17T05:46:25.831Z,8.40
2018-07-17T05:47:25.793Z,8.20
2018-07-17T05:48:25.769Z,8.30
2018-07-17T05:49:25.797Z,8.10
2018-07-17T05:50:25.803Z,8.00
2018-07-17T05:51:25.811Z,8.80
2018-07-17T05:52:25.865Z,8.00
2018-07-17T05:53:25.911Z,7.80
2018-07-17T05:54:25.849Z,8.20
2018-07-17T05:55:25.876Z,8.10
2018-07-17T05:56:25.897Z,7.60
2018-07-17T05:57:25.918Z,8.60
2018-07-17T05:58:25.967Z,8.40
2018-07-17T05:59:25.919Z,8.20
2018-07-17T06:00:25.960Z,8.80
2018-07-17T06:01:26.075Z,8.50
2018-07-17T06:02:25.990Z,8.40
2018-07-17T06:03:26.113Z,7.90
2018-07-17T06:04:26.091Z,8.20
2018-07-17T06:05:26.143Z,8.20
2018-07-17T06:06:26.076Z,8.30
2018-07-17T06:07:26.095Z,8.00
2018-07-17T06:08:26.121Z,8.30
2018-07-17T06:09:26.151Z,8.30
2018-07-17T06:10:26.136Z,8.60
2018-07-17T06:11:26.142Z,9.00
2018-07-17T06:12:26.113Z,8.40
2018-07-17T06:13:26.146Z,8.90
2018-07-17T06:14:26.251Z,8.20
2018-07-17T06:15:26.348Z,8.20
2018-07-17T06:16:26.311Z,8.40
2018-07-17T06:17:26.419Z,8.30
2018-07-17T06:18:26.579Z,8.30
2018-07-17T06:19:26.400Z,8.70
2018-07-17T06:20:26.544Z,8.50
2018-07-17T06:21:26.302Z,8.10
2018-07-17T06:22:26.419Z,8.50
2018-07-17T06:23:26.357Z,8.10
2018-07-17T06:24:26.358Z,8.20
2018-07-17T06:25:26.331Z,8.10
2018-07-17T06:26:26.369Z,8.60
2018-07-17T06:27:26.355Z,8.40
2018-07-17T06:28:26.385Z,8.30
2018-07-17T06:29:26.401Z,8.80
2018-07-17T06:30:26.406Z,7.90
2018-07-17T06:31:26.434Z,7.90
2018-07-17T06:32:26.474Z,8.10
2018-07-17T06:33:26.809Z,7.60
2018-07-17T06:34:26.496Z,7.60
2018-07-17T06:35:26.467Z,8.40
2018-07-17T06:36:26.460Z,8.30
2018-07-17T06:37:26.532Z,8.50
2018-07-17T06:38:26.503Z,7.60
2018-07-17T06:39:26.546Z,7.90
2018-07-17T06:40:26.545Z,8.50
2018-07-17T06:41:26.567Z,7.60
2018-07-17T06:42:26.605Z,7.40
2018-07-17T06:43:26.615Z,7.80
2018-07-17T06:44:26.613Z,7.90
2018-07-17T06:45:26.616Z,7.70
2018-07-17T06:46:26.670Z,7.70
2018-07-17T06:47:26.690Z,7.70
2018-07-17T06:48:26.708Z,9.60
2018-07-17T06:49:26.673Z,7.50
2018-07-17T06:50:26.815Z,7.10
2018-07-17T06:51:26.745Z,6.90
2018-07-17T06:52:26.732Z,7.40
2018-07-17T06:53:26.814Z,7.00
2018-07-17T06:54:26.802Z,6.90
2018-07-17T06:55:26.791Z,7.10
2018-07-17T06:56:26.783Z,7.00
2018-07-17T06:57:26.811Z,6.80
2018-07-17T06:58:26.932Z,7.00
2018-07-17T06:59:26.860Z,6.90
2018-07-17T07:00:26.865Z,7.40
2018-07-17T07:01:26.884Z,6.80
2018-07-17T07:02:26.930Z,7.00
2018-07-17T07:03:26.901Z,6.80
2018-07-17T07:04:26.922Z,6.90
2018-07-17T07:05:26.984Z,6.70
2018-07-17T07:06:27.233Z,7.10
2018-07-17T07:07:27.156Z,6.40
2018-07-17T07:08:26.980Z,6.30
2018-07-17T07:09:27.018Z,6.40
2018-07-17T07:10:27.043Z,6.30
2018-07-17T07:11:27.077Z,6.20
2018-07-17T07:12:27.010Z,6.10
2018-07-17T07:13:27.036Z,5.80
2018-07-17T07:14:27.043Z,6.00
2018-07-17T07:15:27.085Z,6.10
2018-07-17T07:16:27.317Z,5.60
2018-07-17T07:17:27.180Z,5.70
2018-07-17T07:18:27.105Z,6.00
2018-07-17T07:19:27.110Z,6.00
2018-07-17T07:20:27.175Z,5.50
2018-07-17T07:21:27.296Z,5.80
2018-07-17T07:22:27.215Z,5.20
2018-07-17T07:23:27.316Z,5.20
2018-07-17T07:24:27.271Z,5.10
2018-07-17T07:25:27.203Z,5.20
2018-07-17T07:26:27.327Z,5.30
2018-07-17T07:27:27.231Z,5.40
2018-07-17T07:28:27.303Z,5.40
2018-07-17T07:29:27.318Z,5.50
2018-07-17T07:30:27.315Z,5.20
2018-07-17T07:31:27.486Z,5.20
2018-07-17T07:32:27.327Z,5.50
2018-07-17T07:33:27.343Z,5.40
2018-07-17T07:34:27.340Z,5.60
2018-07-17T07:35:27.440Z,5.80
2018-07-17T07:36:27.563Z,5.30
2018-07-17T07:37:27.465Z,5.10
2018-07-17T07:38:27.432Z,5.30
2018-07-17T07:39:27.429Z,5.60
2018-07-17T07:40:27.460Z,5.10
2018-07-17T07:41:27.526Z,5.30
2018-07-17T07:42:27.510Z,5.00
2018-07-17T07:43:27.480Z,5.60
2018-07-17T07:44:27.505Z,5.40
2018-07-17T07:45:27.502Z,5.40
2018-07-17T07:46:27.697Z,5.10
2018-07-17T07:47:27.580Z,5.50
2018-07-17T07:48:27.605Z,5.00
2018-07-17T07:49:27.594Z,5.10
2018-07-17T07:50:27.639Z,4.90
2018-07-17T07:51:27.645Z,5.10
2018-07-17T07:52:27.640Z,4.90
2018-07-17T07:53:27.672Z,5.40
2018-07-17T07:54:27.679Z,4.80
2018-07-17T07:55:27.780Z,4.80
2018-07-17T07:56:27.707Z,4.70
2018-07-17T07:57:27.689Z,4.80
2018-07-17T07:58:27.710Z,4.60
2018-07-17T07:59:27.713Z,4.80
2018-07-17T08:00:27.784Z,4.70
2018-07-17T08:01:27.920Z,5.50
2018-07-17T08:02:27.793Z,4.90
2018-07-17T08:03:27.834Z,4.90
2018-07-17T08:04:27.936Z,4.70
2018-07-17T08:05:27.831Z,4.90
2018-07-17T08:06:27.921Z,5.10
2018-07-17T08:07:28.070Z,4.70
2018-07-17T08:08:27.880Z,4.90
2018-07-17T08:09:28.288Z,4.70
2018-07-17T08:10:27.900Z,4.70
2018-07-17T08:11:27.956Z,4.40
2018-07-17T08:12:27.933Z,4.30
2018-07-17T08:13:27.956Z,4.40
2018-07-17T08:14:27.987Z,4.00
2018-07-17T08:15:27.992Z,4.50
2018-07-17T08:16:28.287Z,4.30
2018-07-17T08:17:28.305Z,4.20
2018-07-17T08:18:28.052Z,4.50
2018-07-17T08:19:28.103Z,4.30
2018-07-17T08:20:28.088Z,4.30
2018-07-17T08:21:28.112Z,4.50
2018-07-17T08:22:28.194Z,4.40
2018-07-17T08:23:28.145Z,4.40
2018-07-17T08:24:28.188Z,4.20
2018-07-17T08:25:28.155Z,4.30
2018-07-17T08:26:28.187Z,4.40
2018-07-17T08:27:28.217Z,4.50
2018-07-17T08:28:28.230Z,4.30
2018-07-17T08:29:28.211Z,4.60
2018-07-17T08:30:28.224Z,4.80
2018-07-17T08:31:28.346Z,4.50
2018-07-17T08:32:28.254Z,4.80
2018-07-17T08:33:28.277Z,5.10
2018-07-17T08:34:28.291Z,4.90
2018-07-17T08:35:28.287Z,5.40
2018-07-17T08:36:28.306Z,4.90
2018-07-17T08:37:28.388Z,5.00
2018-07-17T08:38:28.323Z,5.20
2018-07-17T08:39:28.330Z,5.70
2018-07-17T08:40:28.444Z,5.40
2018-07-17T08:41:28.381Z,5.00
2018-07-17T08:42:28.424Z,5.50
2018-07-17T08:43:28.567Z,5.20
2018-07-17T08:44:28.626Z,5.50
2018-07-17T08:45:28.466Z,5.00
2018-07-17T08:46:28.521Z,5.20
2018-07-17T08:47:28.501Z,5.90
2018-07-17T08:48:28.659Z,5.10
2018-07-17T08:49:28.469Z,5.10
2018-07-17T08:50:28.510Z,5.20
2018-07-17T08:51:28.526Z,4.60
2018-07-17T08:52:28.510Z,4.90
2018-07-17T08:53:28.602Z,5.10
2018-07-17T08:54:28.624Z,5.10
2018-07-17T08:55:28.592Z,5.60
2018-07-17T08:56:28.609Z,5.70
2018-07-17T08:57:28.621Z,5.70
2018-07-17T08:58:28.639Z,5.50
2018-07-17T08:59:28.726Z,5.60
2018-07-17T09:00:28.775Z,5.30
2018-07-17T09:01:28.688Z,5.40
2018-07-17T09:02:28.672Z,5.40
2018-07-17T09:03:28.699Z,5.30
2018-07-17T09:04:28.724Z,5.40
2018-07-17T09:05:28.769Z,5.20
2018-07-17T09:06:28.779Z,5.80
2018-07-17T09:07:28.786Z,5.60
2018-07-17T09:08:28.805Z,5.30
2018-07-17T09:09:28.821Z,5.50
2018-07-17T09:10:29.005Z,5.70
2018-07-17T09:11:28.847Z,5.80
2018-07-17T09:12:28.870Z,6.30
2018-07-17T09:13:28.851Z,6.20
2018-07-17T09:14:28.929Z,6.00
2018-07-17T09:15:28.931Z,5.80
2018-07-17T09:16:28.883Z,6.60
2018-07-17T09:17:28.940Z,6.00
2018-07-17T09:18:29.047Z,7.20
2018-07-17T09:19:28.964Z,6.50
2018-07-17T09:20:28.974Z,5.70
2018-07-17T09:21:29.228Z,6.00
2018-07-17T09:22:29.052Z,5.40
2018-07-17T09:23:29.119Z,5.60
2018-07-17T09:24:29.039Z,5.90
2018-07-17T09:25:29.160Z,5.40
2018-07-17T09:26:29.047Z,5.80
2018-07-17T09:27:29.081Z,5.80
2018-07-17T09:28:29.117Z,5.80
2018-07-17T09:29:29.125Z,5.90
2018-07-17T09:30:29.197Z,6.10
2018-07-17T09:31:29.157Z,5.80
2018-07-17T09:32:29.140Z,5.70
2018-07-17T09:33:29.201Z,5.50
2018-07-17T09:34:29.165Z,5.70
2018-07-17T09:35:29.318Z,5.60
2018-07-17T09:36:29.246Z,5.30
2018-07-17T09:37:29.239Z,5.30
2018-07-17T09:38:29.263Z,5.50
2018-07-17T09:39:29.296Z,5.80
2018-07-17T09:40:29.330Z,5.60
2018-07-17T09:41:29.290Z,5.50
2018-07-17T09:42:29.431Z,5.40
2018-07-17T09:43:29.384Z,5.40
2018-07-17T09:44:29.414Z,5.80
2018-07-17T09:45:29.362Z,6.10
2018-07-17T09:46:29.366Z,5.80
2018-07-17T09:47:29.437Z,5.80
2018-07-17T09:48:29.380Z,5.90
2018-07-17T09:49:29.465Z,6.00
2018-07-17T09:50:29.456Z,6.30
2018-07-17T09:51:29.450Z,6.10
2018-07-17T09:52:29.471Z,5.90
2018-07-17T09:53:29.532Z,5.50
2018-07-17T09:54:29.619Z,6.40
2018-07-17T09:55:29.572Z,5.50
2018-07-17T09:56:29.555Z,6.00
2018-07-17T09:57:29.527Z,5.40
2018-07-17T09:58:29.551Z,5.60
2018-07-17T09:59:29.635Z,5.50
2018-07-17T10:00:29.670Z,5.70
2018-07-17T10:01:29.637Z,5.10
2018-07-17T10:02:29.599Z,6.90
2018-07-17T10:03:29.629Z,5.60
2018-07-17T10:04:29.680Z,6.00
2018-07-17T10:05:29.696Z,5.70
2018-07-17T10:06:29.798Z,6.10
2018-07-17T10:07:29.716Z,5.40
2018-07-17T10:08:29.762Z,5.70
2018-07-17T10:09:29.827Z,5.80
2018-07-17T10:10:29.767Z,5.80
2018-07-17T10:11:29.755Z,5.70
2018-07-17T10:12:29.761Z,5.80
2018-07-17T10:13:29.887Z,6.10
2018-07-17T10:14:29.850Z,6.30
2018-07-17T10:15:29.815Z,6.30
2018-07-17T10:16:29.820Z,6.30
2018-07-17T10:17:29.882Z,5.90
2018-07-17T10:18:29.887Z,5.40
2018-07-17T10:19:29.879Z,5.20
2018-07-17T10:20:29.893Z,5.40
2018-07-17T10:21:29.960Z,5.50
2018-07-17T10:22:29.922Z,5.70
2018-07-17T10:23:30.011Z,5.40
2018-07-17T10:24:29.967Z,5.60
2018-07-17T10:25:30.159Z,5.00
2018-07-17T10:26:30.009Z,5.40
2018-07-17T10:27:30.011Z,5.10
2018-07-17T10:28:30.086Z,5.30
2018-07-17T10:29:30.111Z,5.60
2018-07-17T10:30:30.269Z,5.40
2018-07-17T10:31:30.076Z,5.40
2018-07-17T10:32:30.149Z,5.40
2018-07-17T10:33:30.141Z,5.30
2018-07-17T10:34:30.134Z,5.50
2018-07-17T10:35:30.205Z,5.10
2018-07-17T10:36:30.276Z,5.40
2018-07-17T10:37:30.166Z,5.80
2018-07-17T10:38:30.278Z,5.30
2018-07-17T10:39:30.182Z,5.80
2018-07-17T10:40:30.256Z,5.00
2018-07-17T10:41:30.244Z,5.20
2018-07-17T10:42:30.253Z,5.30
2018-07-17T10:43:30.337Z,5.00
2018-07-17T10:44:30.324Z,5.40
2018-07-17T10:45:30.288Z,4.90
2018-07-17T10:46:30.365Z,5.00
2018-07-17T10:47:30.357Z,5.00
2018-07-17T10:48:30.396Z,4.90
2018-07-17T10:49:30.564Z,5.10
2018-07-17T10:50:30.411Z,5.00
2018-07-17T10:51:30.470Z,5.00
2018-07-17T10:52:30.453Z,5.10
2018-07-17T10:53:30.517Z,5.20
2018-07-17T10:54:30.965Z,5.40
2018-07-17T10:55:30.447Z,5.40
2018-07-17T10:56:30.490Z,5.20
2018-07-17T10:57:30.494Z,5.10
2018-07-17T10:58:30.590Z,4.80
2018-07-17T10:59:30.564Z,5.30
2018-07-17T11:00:30.524Z,5.30
2018-07-17T11:01:30.542Z,5.50
2018-07-17T11:02:30.700Z,5.80
2018-07-17T11:03:30.582Z,5.60
2018-07-17T11:04:30.650Z,5.20
2018-07-17T11:05:30.647Z,5.00
2018-07-17T11:06:30.620Z,4.70
2018-07-17T11:07:30.630Z,4.70
2018-07-17T11:08:30.753Z,5.00
2018-07-17T11:09:30.716Z,4.80
2018-07-17T11:10:30.730Z,5.10
2018-07-17T11:11:30.778Z,4.90
2018-07-17T11:12:30.718Z,5.10
2018-07-17T11:13:30.717Z,5.30
2018-07-17T11:14:30.815Z,5.00
2018-07-17T11:15:30.811Z,5.00
2018-07-17T11:16:30.877Z,5.00
2018-07-17T11:17:30.847Z,5.00
2018-07-17T11:18:30.822Z,4.70
2018-07-17T11:19:30.849Z,4.70
2018-07-17T11:20:30.875Z,5.10
2018-07-17T11:21:30.912Z,4.70
2018-07-17T11:22:30.937Z,5.20
2018-07-17T11:23:30.935Z,4.80
2018-07-17T11:24:30.945Z,5.00
2018-07-17T11:25:30.977Z,5.00
2018-07-17T11:26:30.949Z,5.30
2018-07-17T11:27:30.984Z,5.20
2018-07-17T11:28:30.969Z,5.10
2018-07-17T11:29:31.012Z,5.20
2018-07-17T11:30:31.025Z,5.50
2018-07-17T11:31:31.034Z,5.90
2018-07-17T11:32:31.034Z,5.40
2018-07-17T11:33:31.057Z,5.50
2018-07-17T11:34:31.121Z,5.50
2018-07-17T11:35:31.174Z,5.70
2018-07-17T11:36:31.156Z,5.30
2018-07-17T11:37:31.144Z,5.20
2018-07-17T11:38:31.162Z,5.30
2018-07-17T11:39:31.172Z,5.40
2018-07-17T11:40:31.188Z,5.20
2018-07-17T11:41:31.258Z,5.60
2018-07-17T11:42:31.222Z,5.60
2018-07-17T11:43:31.468Z,5.20
2018-07-17T11:44:31.265Z,5.70
2018-07-17T11:45:31.295Z,7.10
2018-07-17T11:46:31.365Z,5.90
2018-07-17T11:47:31.504Z,5.50
2018-07-17T11:48:31.322Z,5.60
2018-07-17T11:49:31.337Z,5.50
2018-07-17T11:50:31.349Z,5.30
2018-07-17T11:51:31.372Z,5.90
2018-07-17T11:52:31.366Z,5.80
2018-07-17T11:53:31.392Z,6.00
2018-07-17T11:54:31.392Z,6.30
2018-07-17T11:55:31.541Z,5.60
2018-07-17T11:56:31.427Z,5.70
2018-07-17T11:57:31.450Z,7.30
2018-07-17T11:58:31.461Z,5.50
2018-07-17T11:59:31.649Z,6.00
2018-07-17T12:00:31.553Z,5.50
2018-07-17T12:01:31.524Z,5.90
2018-07-17T12:02:31.524Z,5.80
2018-07-17T12:03:31.554Z,5.90
2018-07-17T12:04:31.580Z,5.80
2018-07-17T12:05:31.661Z,5.40
2018-07-17T12:06:31.758Z,5.70
2018-07-17T12:07:31.712Z,5.60
2018-07-17T12:08:31.644Z,5.90
2018-07-17T12:09:31.998Z,5.50
2018-07-17T12:10:31.806Z,5.50
2018-07-17T12:11:32.044Z,5.60
2018-07-17T12:12:31.715Z,5.60
2018-07-17T12:13:31.727Z,6.00
2018-07-17T12:14:31.731Z,6.20
2018-07-17T12:15:31.808Z,5.70
2018-07-17T12:16:31.752Z,5.70
2018-07-17T12:17:31.813Z,5.30
2018-07-17T12:18:31.781Z,5.60
2018-07-17T12:19:31.841Z,5.70
2018-07-17T12:20:31.984Z,5.80
2018-07-17T12:21:31.855Z,5.80
2018-07-17T12:22:31.861Z,5.80
2018-07-17T12:23:31.886Z,6.00
2018-07-17T12:24:31.947Z,6.40
2018-07-17T12:25:31.980Z,6.00
2018-07-17T12:26:31.911Z,5.90
2018-07-17T12:27:31.969Z,5.40
2018-07-17T12:28:31.981Z,5.90
2018-07-17T12:29:32.173Z,5.50
2018-07-17T12:30:32.202Z,5.80
2018-07-17T12:31:32.022Z,5.80
2018-07-17T12:32:32.008Z,5.60
2018-07-17T12:33:32.083Z,5.80
2018-07-17T12:34:32.093Z,6.20
2018-07-17T12:35:32.110Z,6.00
2018-07-17T12:36:32.126Z,5.90
2018-07-17T12:37:32.275Z,5.70
2018-07-17T12:38:32.138Z,6.00
2018-07-17T12:39:32.195Z,5.90
2018-07-17T12:40:32.220Z,6.20
2018-07-17T12:41:32.159Z,6.10
2018-07-17T12:42:33.874Z,6.30
2018-07-17T12:43:33.163Z,5.90
2018-07-17T12:44:32.263Z,5.90
2018-07-17T12:45:32.268Z,6.70
2018-07-17T12:46:32.290Z,6.20
2018-07-17T12:47:32.280Z,6.20
2018-07-17T12:48:32.400Z,6.30
2018-07-17T12:49:32.341Z,5.90
2018-07-17T12:50:32.343Z,5.80
2018-07-17T12:51:32.440Z,5.80
2018-07-17T12:52:32.401Z,5.50
2018-07-17T12:53:32.515Z,5.50
2018-07-17T12:54:32.488Z,5.80
2018-07-17T12:55:32.450Z,5.60
2018-07-17T12:56:32.428Z,5.60
2018-07-17T12:57:32.473Z,5.20
2018-07-17T12:58:32.468Z,5.40
2018-07-17T12:59:32.552Z,5.10
2018-07-17T13:00:32.530Z,5.20
2018-07-17T13:01:32.511Z,5.40
2018-07-17T13:02:32.568Z,4.90
2018-07-17T13:03:32.561Z,4.90
2018-07-17T13:04:32.596Z,5.40
2018-07-17T13:05:32.646Z,5.20
2018-07-17T13:06:32.600Z,5.20
2018-07-17T13:07:32.602Z,5.60
2018-07-17T13:08:32.640Z,5.70
2018-07-17T13:09:32.639Z,5.40
2018-07-17T13:10:32.714Z,5.90
2018-07-17T13:11:32.726Z,6.20
2018-07-17T13:12:32.691Z,6.10
2018-07-17T13:13:32.725Z,5.50
2018-07-17T13:14:32.743Z,5.60
2018-07-17T13:15:32.754Z,5.30
2018-07-17T13:16:32.784Z,5.60
2018-07-17T13:17:32.936Z,5.60
2018-07-17T13:18:32.808Z,5.50